sensor_id;sensor_type;location;lat;lon;timestamp;P1;durP1;ratioP1;P2;durP2;ratioP2
60306;SDS011;46155;52.364;6.580;2024-03-29T04:01:04;28.03;;;12.50;;
60306;SDS011;46155;52.364;6.580;2024-03-29T04:03:29;11.83;;;11.03;;
60306;SDS011;46155;52.364;6.580;2024-03-29T04:05:55;11.80;;;11.17;;
60306;SDS011;46155;52.364;6.580;2024-03-29T04:08:20;12.47;;;11.87;;
60306;SDS011;46155;52.364;6.580;2024-03-29T04:10:45;11.43;;;10.63;;
60306;SDS011;46155;52.364;6.580;2024-03-29T04:13:11;11.27;;;10.77;;
60306;SDS011;46155;52.364;6.580;2024-03-29T04:15:36;10.73;;;10.23;;
60306;SDS011;46155;52.364;6.580;2024-03-29T04:18:01;12.17;;;11.27;;
60306;SDS011;46155;52.364;6.580;2024-03-29T04:20:26;11.00;;;10.37;;
60306;SDS011;46155;52.364;6.580;2024-03-29T04:22:52;13.83;;;12.43;;
60306;SDS011;46155;52.364;6.580;2024-03-29T04:25:17;10.77;;;10.10;;
60306;SDS011;46155;52.364;6.580;2024-03-29T04:27:42;11.70;;;10.83;;
60306;SDS011;46155;52.364;6.580;2024-03-29T04:30:08;13.03;;;12.03;;
60306;SDS011;46155;52.364;6.580;2024-03-29T04:32:33;11.53;;;11.03;;
60306;SDS011;46155;52.364;6.580;2024-03-29T04:34:58;10.67;;;10.07;;
60306;SDS011;46155;52.364;6.580;2024-03-29T04:37:23;10.63;;;10.03;;
60306;SDS011;46155;52.364;6.580;2024-03-29T04:39:49;11.77;;;11.23;;
60306;SDS011;46155;52.364;6.580;2024-03-29T04:42:14;11.87;;;11.27;;
60306;SDS011;46155;52.364;6.580;2024-03-29T04:44:40;11.60;;;11.00;;
60306;SDS011;46155;52.364;6.580;2024-03-29T04:47:05;11.33;;;10.83;;
60306;SDS011;46155;52.364;6.580;2024-03-29T04:49:30;11.43;;;10.80;;
60306;SDS011;46155;52.364;6.580;2024-03-29T04:52:01;11.73;;;10.93;;
60306;SDS011;46155;52.364;6.580;2024-03-29T04:54:27;13.87;;;10.90;;
60306;SDS011;46155;52.364;6.580;2024-03-29T04:56:52;12.77;;;11.87;;
60306;SDS011;46155;52.364;6.580;2024-03-29T04:59:18;12.40;;;11.80;;
60306;SDS011;46155;52.364;6.580;2024-03-29T05:01:45;11.90;;;11.30;;
60306;SDS011;46155;52.364;6.580;2024-03-29T05:04:15;12.47;;;11.77;;
60306;SDS011;46155;52.364;6.580;2024-03-29T05:06:43;13.87;;;12.60;;
60306;SDS011;46155;52.364;6.580;2024-03-29T05:09:09;12.30;;;11.70;;
60306;SDS011;46155;52.364;6.580;2024-03-29T05:11:36;13.30;;;12.70;;
60306;SDS011;46155;52.364;6.580;2024-03-29T05:14:02;12.27;;;11.57;;
60306;SDS011;46155;52.364;6.580;2024-03-29T05:16:28;11.13;;;10.63;;
60306;SDS011;46155;52.364;6.580;2024-03-29T05:18:54;11.37;;;10.77;;
60306;SDS011;46155;52.364;6.580;2024-03-29T05:21:19;11.63;;;11.03;;
60306;SDS011;46155;52.364;6.580;2024-03-29T05:23:44;13.13;;;12.40;;
60306;SDS011;46155;52.364;6.580;2024-03-29T05:26:10;10.73;;;10.23;;
60306;SDS011;46155;52.364;6.580;2024-03-29T05:28:35;11.33;;;10.83;;
60306;SDS011;46155;52.364;6.580;2024-03-29T05:31:10;12.03;;;11.50;;
60306;SDS011;46155;52.364;6.580;2024-03-29T05:33:40;14.53;;;13.83;;
60306;SDS011;46155;52.364;6.580;2024-03-29T05:36:06;35.03;;;12.20;;
60306;SDS011;46155;52.364;6.580;2024-03-29T05:38:33;14.50;;;13.83;;
60306;SDS011;46155;52.364;6.580;2024-03-29T05:40:59;14.43;;;13.73;;
60306;SDS011;46155;52.364;6.580;2024-03-29T05:43:24;16.10;;;15.30;;
60306;SDS011;46155;52.364;6.580;2024-03-29T05:45:52;22.03;;;20.83;;
60306;SDS011;46155;52.364;6.580;2024-03-29T05:48:17;21.93;;;20.87;;
60306;SDS011;46155;52.364;6.580;2024-03-29T05:50:44;23.10;;;21.70;;
60306;SDS011;46155;52.364;6.580;2024-03-29T05:53:09;25.63;;;24.47;;
60306;SDS011;46155;52.364;6.580;2024-03-29T05:55:35;23.20;;;21.90;;
60306;SDS011;46155;52.364;6.580;2024-03-29T05:58:00;21.63;;;20.63;;
60306;SDS011;46155;52.364;6.580;2024-03-29T06:00:25;25.93;;;24.73;;
60306;SDS011;46155;52.364;6.580;2024-03-29T06:02:51;23.87;;;22.63;;
60306;SDS011;46155;52.364;6.580;2024-03-29T06:05:17;27.50;;;26.17;;
60306;SDS011;46155;52.364;6.580;2024-03-29T06:07:42;33.40;;;31.77;;
60306;SDS011;46155;52.364;6.580;2024-03-29T06:10:07;38.73;;;36.67;;
60306;SDS011;46155;52.364;6.580;2024-03-29T06:12:35;35.07;;;33.37;;
60306;SDS011;46155;52.364;6.580;2024-03-29T06:15:01;34.63;;;32.93;;
60306;SDS011;46155;52.364;6.580;2024-03-29T06:17:44;39.50;;;37.67;;
60306;SDS011;46155;52.364;6.580;2024-03-29T06:20:10;43.50;;;41.40;;
60306;SDS011;46155;52.364;6.580;2024-03-29T06:22:36;39.57;;;37.53;;
60306;SDS011;46155;52.364;6.580;2024-03-29T06:25:01;45.07;;;42.97;;
60306;SDS011;46155;52.364;6.580;2024-03-29T06:27:33;47.93;;;45.73;;
60306;SDS011;46155;52.364;6.580;2024-03-29T06:29:59;46.40;;;44.27;;
60306;SDS011;46155;52.364;6.580;2024-03-29T06:32:25;94.77;;;89.53;;
60306;SDS011;46155;52.364;6.580;2024-03-29T06:34:50;56.10;;;53.17;;
60306;SDS011;46155;52.364;6.580;2024-03-29T06:37:16;110.70;;;104.40;;
60306;SDS011;46155;52.364;6.580;2024-03-29T06:39:41;75.63;;;71.93;;
60306;SDS011;46155;52.364;6.580;2024-03-29T06:42:08;43.20;;;41.10;;
60306;SDS011;46155;52.364;6.580;2024-03-29T06:44:34;51.60;;;49.20;;
60306;SDS011;46155;52.364;6.580;2024-03-29T06:46:59;69.17;;;65.80;;
60306;SDS011;46155;52.364;6.580;2024-03-29T06:49:25;49.00;;;46.67;;
60306;SDS011;46155;52.364;6.580;2024-03-29T06:51:50;45.40;;;42.90;;
60306;SDS011;46155;52.364;6.580;2024-03-29T06:54:16;48.23;;;45.93;;
60306;SDS011;46155;52.364;6.580;2024-03-29T06:56:41;60.30;;;57.53;;
60306;SDS011;46155;52.364;6.580;2024-03-29T06:59:06;58.37;;;55.53;;
60306;SDS011;46155;52.364;6.580;2024-03-29T07:01:33;79.13;;;75.40;;
60306;SDS011;46155;52.364;6.580;2024-03-29T07:03:58;64.13;;;61.17;;
60306;SDS011;46155;52.364;6.580;2024-03-29T07:06:24;60.90;;;57.77;;
60306;SDS011;46155;52.364;6.580;2024-03-29T07:08:49;58.73;;;55.87;;
60306;SDS011;46155;52.364;6.580;2024-03-29T07:11:15;58.97;;;55.93;;
60306;SDS011;46155;52.364;6.580;2024-03-29T07:13:40;61.27;;;58.27;;
60306;SDS011;46155;52.364;6.580;2024-03-29T07:16:06;55.40;;;51.20;;
60306;SDS011;46155;52.364;6.580;2024-03-29T07:18:34;61.77;;;58.07;;
60306;SDS011;46155;52.364;6.580;2024-03-29T07:20:59;56.93;;;54.23;;
60306;SDS011;46155;52.364;6.580;2024-03-29T07:23:25;60.00;;;57.13;;
60306;SDS011;46155;52.364;6.580;2024-03-29T07:26:00;64.50;;;61.23;;
60306;SDS011;46155;52.364;6.580;2024-03-29T07:28:27;76.90;;;73.27;;
60306;SDS011;46155;52.364;6.580;2024-03-29T07:30:52;102.40;;;97.57;;
60306;SDS011;46155;52.364;6.580;2024-03-29T07:33:19;113.30;;;108.03;;
60306;SDS011;46155;52.364;6.580;2024-03-29T07:35:46;106.70;;;101.63;;
60306;SDS011;46155;52.364;6.580;2024-03-29T07:38:12;107.43;;;102.20;;
60306;SDS011;46155;52.364;6.580;2024-03-29T07:40:40;97.27;;;92.77;;
60306;SDS011;46155;52.364;6.580;2024-03-29T07:43:05;81.00;;;77.13;;
60306;SDS011;46155;52.364;6.580;2024-03-29T07:45:30;81.47;;;77.17;;
60306;SDS011;46155;52.364;6.580;2024-03-29T07:47:56;58.93;;;55.87;;
60306;SDS011;46155;52.364;6.580;2024-03-29T07:50:21;62.17;;;59.13;;
60306;SDS011;46155;52.364;6.580;2024-03-29T07:52:46;57.60;;;54.00;;
60306;SDS011;46155;52.364;6.580;2024-03-29T07:55:12;59.70;;;56.90;;
60306;SDS011;46155;52.364;6.580;2024-03-29T07:57:37;55.70;;;52.50;;
60306;SDS011;46155;52.364;6.580;2024-03-29T08:00:03;56.77;;;54.17;;
60306;SDS011;46155;52.364;6.580;2024-03-29T08:02:29;52.47;;;49.90;;
60306;SDS011;46155;52.364;6.580;2024-03-29T08:04:55;51.73;;;49.27;;
60306;SDS011;46155;52.364;6.580;2024-03-29T08:07:20;50.53;;;48.13;;
60306;SDS011;46155;52.364;6.580;2024-03-29T08:09:46;50.60;;;48.17;;
60306;SDS011;46155;52.364;6.580;2024-03-29T08:12:11;51.83;;;49.00;;
60306;SDS011;46155;52.364;6.580;2024-03-29T08:14:36;53.67;;;51.10;;
60306;SDS011;46155;52.364;6.580;2024-03-29T08:17:01;53.80;;;50.97;;
60306;SDS011;46155;52.364;6.580;2024-03-29T08:19:30;54.47;;;51.87;;
60306;SDS011;46155;52.364;6.580;2024-03-29T08:21:55;56.63;;;53.97;;
60306;SDS011;46155;52.364;6.580;2024-03-29T08:24:20;52.63;;;49.70;;
60306;SDS011;46155;52.364;6.580;2024-03-29T08:26:46;54.57;;;51.97;;
60306;SDS011;46155;52.364;6.580;2024-03-29T08:29:12;57.97;;;55.10;;
60306;SDS011;46155;52.364;6.580;2024-03-29T08:31:37;74.40;;;70.80;;
60306;SDS011;46155;52.364;6.580;2024-03-29T08:34:02;51.70;;;49.20;;
60306;SDS011;46155;52.364;6.580;2024-03-29T08:36:28;52.20;;;48.10;;
60306;SDS011;46155;52.364;6.580;2024-03-29T08:38:53;43.57;;;41.13;;
60306;SDS011;46155;52.364;6.580;2024-03-29T08:41:20;133.30;;;126.95;;
60306;SDS011;46155;52.364;6.580;2024-03-29T08:43:45;57.93;;;55.03;;
60306;SDS011;46155;52.364;6.580;2024-03-29T08:46:11;54.40;;;51.57;;
60306;SDS011;46155;52.364;6.580;2024-03-29T08:48:36;51.70;;;49.00;;
60306;SDS011;46155;52.364;6.580;2024-03-29T08:51:04;48.97;;;46.57;;
60306;SDS011;46155;52.364;6.580;2024-03-29T08:53:30;49.50;;;47.10;;
60306;SDS011;46155;52.364;6.580;2024-03-29T08:55:55;47.40;;;45.10;;
60306;SDS011;46155;52.364;6.580;2024-03-29T08:58:21;53.00;;;50.00;;
60306;SDS011;46155;52.364;6.580;2024-03-29T09:00:54;56.00;;;53.27;;
60306;SDS011;46155;52.364;6.580;2024-03-29T09:03:21;48.43;;;45.23;;
60306;SDS011;46155;52.364;6.580;2024-03-29T09:05:47;52.23;;;49.03;;
60306;SDS011;46155;52.364;6.580;2024-03-29T09:08:13;51.80;;;49.30;;
60306;SDS011;46155;52.364;6.580;2024-03-29T09:10:38;54.40;;;51.70;;
60306;SDS011;46155;52.364;6.580;2024-03-29T09:13:03;51.00;;;48.40;;
60306;SDS011;46155;52.364;6.580;2024-03-29T09:15:32;54.77;;;52.10;;
60306;SDS011;46155;52.364;6.580;2024-03-29T09:17:57;57.37;;;54.67;;
60306;SDS011;46155;52.364;6.580;2024-03-29T09:20:26;54.07;;;51.33;;
60306;SDS011;46155;52.364;6.580;2024-03-29T09:22:51;64.13;;;60.80;;
60306;SDS011;46155;52.364;6.580;2024-03-29T09:25:17;60.30;;;57.20;;
60306;SDS011;46155;52.364;6.580;2024-03-29T09:27:44;59.73;;;56.70;;
60306;SDS011;46155;52.364;6.580;2024-03-29T09:30:10;52.13;;;49.57;;
60306;SDS011;46155;52.364;6.580;2024-03-29T09:32:37;53.53;;;50.60;;
60306;SDS011;46155;52.364;6.580;2024-03-29T09:35:02;51.63;;;49.03;;
60306;SDS011;46155;52.364;6.580;2024-03-29T09:37:27;49.57;;;47.23;;
60306;SDS011;46155;52.364;6.580;2024-03-29T09:39:53;48.37;;;45.97;;
60306;SDS011;46155;52.364;6.580;2024-03-29T09:42:18;55.53;;;52.60;;
60306;SDS011;46155;52.364;6.580;2024-03-29T09:44:47;51.23;;;48.77;;
60306;SDS011;46155;52.364;6.580;2024-03-29T09:47:15;51.43;;;49.03;;
60306;SDS011;46155;52.364;6.580;2024-03-29T09:49:42;60.80;;;57.63;;
60306;SDS011;46155;52.364;6.580;2024-03-29T09:52:10;62.73;;;59.73;;
60306;SDS011;46155;52.364;6.580;2024-03-29T09:54:35;55.63;;;52.50;;
60306;SDS011;46155;52.364;6.580;2024-03-29T09:57:01;47.70;;;45.50;;
60306;SDS011;46155;52.364;6.580;2024-03-29T09:59:27;53.47;;;50.83;;
60306;SDS011;46155;52.364;6.580;2024-03-29T10:01:56;48.47;;;45.90;;
60306;SDS011;46155;52.364;6.580;2024-03-29T10:04:23;55.90;;;53.03;;
60306;SDS011;46155;52.364;6.580;2024-03-29T10:06:49;50.53;;;48.03;;
60306;SDS011;46155;52.364;6.580;2024-03-29T10:09:19;52.70;;;50.20;;
60306;SDS011;46155;52.364;6.580;2024-03-29T10:11:49;56.23;;;53.27;;
60306;SDS011;46155;52.364;6.580;2024-03-29T10:14:15;54.30;;;51.63;;
60306;SDS011;46155;52.364;6.580;2024-03-29T10:16:40;66.87;;;63.70;;
60306;SDS011;46155;52.364;6.580;2024-03-29T10:19:06;70.60;;;67.27;;
60306;SDS011;46155;52.364;6.580;2024-03-29T10:21:33;64.23;;;61.23;;
60306;SDS011;46155;52.364;6.580;2024-03-29T10:24:00;66.33;;;63.23;;
60306;SDS011;46155;52.364;6.580;2024-03-29T10:26:26;67.83;;;64.57;;
60306;SDS011;46155;52.364;6.580;2024-03-29T10:28:51;69.27;;;65.83;;
60306;SDS011;46155;52.364;6.580;2024-03-29T10:31:19;70.20;;;66.83;;
60306;SDS011;46155;52.364;6.580;2024-03-29T10:33:44;92.73;;;88.33;;
60306;SDS011;46155;52.364;6.580;2024-03-29T10:36:10;85.73;;;81.63;;
60306;SDS011;46155;52.364;6.580;2024-03-29T10:38:37;100.07;;;95.47;;
60306;SDS011;46155;52.364;6.580;2024-03-29T10:41:02;97.27;;;92.53;;
60306;SDS011;46155;52.364;6.580;2024-03-29T10:43:31;72.17;;;68.67;;
60306;SDS011;46155;52.364;6.580;2024-03-29T10:45:57;74.20;;;70.70;;
60306;SDS011;46155;52.364;6.580;2024-03-29T10:48:28;80.67;;;76.87;;
60306;SDS011;46155;52.364;6.580;2024-03-29T10:50:53;77.67;;;73.87;;
60306;SDS011;46155;52.364;6.580;2024-03-29T10:53:20;84.63;;;80.30;;
60306;SDS011;46155;52.364;6.580;2024-03-29T10:55:47;103.67;;;98.83;;
60306;SDS011;46155;52.364;6.580;2024-03-29T10:58:15;94.83;;;90.40;;
60306;SDS011;46155;52.364;6.580;2024-03-29T11:00:45;136.00;;;129.47;;
60306;SDS011;46155;52.364;6.580;2024-03-29T11:05:46;189.27;;;180.40;;
60306;SDS011;46155;52.364;6.580;2024-03-29T11:08:14;166.10;;;158.13;;
60306;SDS011;46155;52.364;6.580;2024-03-29T11:10:44;201.23;;;191.73;;
60306;SDS011;46155;52.364;6.580;2024-03-29T11:16:17;171.87;;;163.43;;
60306;SDS011;46155;52.364;6.580;2024-03-29T11:18:44;178.23;;;170.00;;
60306;SDS011;46155;52.364;6.580;2024-03-29T11:21:09;213.77;;;203.87;;
60306;SDS011;46155;52.364;6.580;2024-03-29T11:23:37;209.60;;;199.93;;
60306;SDS011;46155;52.364;6.580;2024-03-29T11:26:02;247.00;;;235.23;;
60306;SDS011;46155;52.364;6.580;2024-03-29T11:28:34;252.33;;;240.77;;
60306;SDS011;46155;52.364;6.580;2024-03-29T11:36:03;261.40;;;249.03;;
60306;SDS011;46155;52.364;6.580;2024-03-29T11:38:35;330.60;;;315.17;;
60306;SDS011;46155;52.364;6.580;2024-03-29T11:41:11;404.07;;;384.27;;
60306;SDS011;46155;52.364;6.580;2024-03-29T11:43:37;338.47;;;322.53;;
60306;SDS011;46155;52.364;6.580;2024-03-29T11:46:06;365.00;;;347.27;;
60306;SDS011;46155;52.364;6.580;2024-03-29T11:48:33;446.43;;;423.50;;
60306;SDS011;46155;52.364;6.580;2024-03-29T11:51:00;472.70;;;447.77;;
60306;SDS011;46155;52.364;6.580;2024-03-29T11:53:28;459.50;;;435.80;;
60306;SDS011;46155;52.364;6.580;2024-03-29T11:55:54;508.97;;;481.20;;
60306;SDS011;46155;52.364;6.580;2024-03-29T11:58:20;522.63;;;493.93;;
60306;SDS011;46155;52.364;6.580;2024-03-29T12:00:47;462.80;;;439.07;;
60306;SDS011;46155;52.364;6.580;2024-03-29T12:03:14;505.97;;;478.50;;
60306;SDS011;46155;52.364;6.580;2024-03-29T12:05:41;530.13;;;501.03;;
60306;SDS011;46155;52.364;6.580;2024-03-29T12:08:07;513.83;;;486.00;;
60306;SDS011;46155;52.364;6.580;2024-03-29T12:10:32;545.70;;;515.23;;
60306;SDS011;46155;52.364;6.580;2024-03-29T12:13:00;569.50;;;536.40;;
60306;SDS011;46155;52.364;6.580;2024-03-29T12:15:28;580.80;;;547.20;;
60306;SDS011;46155;52.364;6.580;2024-03-29T12:17:57;557.27;;;525.80;;
60306;SDS011;46155;52.364;6.580;2024-03-29T12:20:24;588.57;;;553.90;;
60306;SDS011;46155;52.364;6.580;2024-03-29T12:22:49;612.53;;;575.83;;
60306;SDS011;46155;52.364;6.580;2024-03-29T12:25:15;598.93;;;563.13;;
60306;SDS011;46155;52.364;6.580;2024-03-29T12:27:44;595.60;;;560.40;;
60306;SDS011;46155;52.364;6.580;2024-03-29T12:30:11;587.43;;;552.97;;
60306;SDS011;46155;52.364;6.580;2024-03-29T12:32:38;593.73;;;558.97;;
60306;SDS011;46155;52.364;6.580;2024-03-29T12:35:10;580.67;;;546.93;;
60306;SDS011;46155;52.364;6.580;2024-03-29T12:37:36;580.10;;;546.27;;
60306;SDS011;46155;52.364;6.580;2024-03-29T12:40:02;574.37;;;541.23;;
60306;SDS011;46155;52.364;6.580;2024-03-29T12:42:37;557.17;;;525.60;;
60306;SDS011;46155;52.364;6.580;2024-03-29T12:45:06;586.23;;;552.33;;
60306;SDS011;46155;52.364;6.580;2024-03-29T12:47:33;603.33;;;567.13;;
60306;SDS011;46155;52.364;6.580;2024-03-29T12:50:00;617.37;;;580.07;;
60306;SDS011;46155;52.364;6.580;2024-03-29T12:52:25;632.73;;;593.93;;
60306;SDS011;46155;52.364;6.580;2024-03-29T12:54:51;634.47;;;595.30;;
60306;SDS011;46155;52.364;6.580;2024-03-29T12:57:17;640.17;;;600.77;;
60306;SDS011;46155;52.364;6.580;2024-03-29T12:59:42;678.17;;;634.90;;
60306;SDS011;46155;52.364;6.580;2024-03-29T13:02:09;659.63;;;618.27;;
60306;SDS011;46155;52.364;6.580;2024-03-29T13:04:35;686.17;;;642.17;;
60306;SDS011;46155;52.364;6.580;2024-03-29T13:07:00;660.83;;;619.27;;
60306;SDS011;46155;52.364;6.580;2024-03-29T13:09:25;687.90;;;643.67;;
60306;SDS011;46155;52.364;6.580;2024-03-29T13:11:50;696.60;;;650.97;;
60306;SDS011;46155;52.364;6.580;2024-03-29T13:14:16;731.93;;;682.13;;
60306;SDS011;46155;52.364;6.580;2024-03-29T13:16:41;718.30;;;670.83;;
60306;SDS011;46155;52.364;6.580;2024-03-29T13:19:06;739.87;;;689.70;;
60306;SDS011;46155;52.364;6.580;2024-03-29T13:21:32;749.83;;;698.37;;
60306;SDS011;46155;52.364;6.580;2024-03-29T13:23:57;766.13;;;713.43;;
60306;SDS011;46155;52.364;6.580;2024-03-29T13:26:22;802.30;;;745.73;;
60306;SDS011;46155;52.364;6.580;2024-03-29T13:28:47;796.47;;;740.90;;
60306;SDS011;46155;52.364;6.580;2024-03-29T13:31:13;805.40;;;748.57;;
60306;SDS011;46155;52.364;6.580;2024-03-29T13:33:38;769.03;;;715.53;;
60306;SDS011;46155;52.364;6.580;2024-03-29T13:36:04;781.77;;;727.37;;
60306;SDS011;46155;52.364;6.580;2024-03-29T13:38:29;796.67;;;740.60;;
60306;SDS011;46155;52.364;6.580;2024-03-29T13:40:55;782.33;;;727.30;;
60306;SDS011;46155;52.364;6.580;2024-03-29T13:43:21;788.90;;;733.67;;
60306;SDS011;46155;52.364;6.580;2024-03-29T13:45:47;806.67;;;749.90;;
60306;SDS011;46155;52.364;6.580;2024-03-29T13:48:14;809.33;;;751.47;;
60306;SDS011;46155;52.364;6.580;2024-03-29T13:50:39;807.27;;;750.37;;
60306;SDS011;46155;52.364;6.580;2024-03-29T13:53:04;809.60;;;752.33;;
60306;SDS011;46155;52.364;6.580;2024-03-29T13:55:30;815.23;;;756.73;;
60306;SDS011;46155;52.364;6.580;2024-03-29T13:57:55;842.43;;;782.13;;
60306;SDS011;46155;52.364;6.580;2024-03-29T14:00:21;845.67;;;785.10;;
60306;SDS011;46155;52.364;6.580;2024-03-29T14:02:46;843.77;;;783.13;;
60306;SDS011;46155;52.364;6.580;2024-03-29T14:05:11;833.93;;;774.73;;
60306;SDS011;46155;52.364;6.580;2024-03-29T14:07:37;801.50;;;744.83;;
60306;SDS011;46155;52.364;6.580;2024-03-29T14:10:03;821.43;;;762.70;;
60306;SDS011;46155;52.364;6.580;2024-03-29T14:12:31;816.33;;;758.57;;
60306;SDS011;46155;52.364;6.580;2024-03-29T14:14:57;839.77;;;779.77;;
60306;SDS011;46155;52.364;6.580;2024-03-29T14:17:22;851.40;;;790.17;;
60306;SDS011;46155;52.364;6.580;2024-03-29T14:19:48;850.27;;;789.20;;
60306;SDS011;46155;52.364;6.580;2024-03-29T14:22:16;884.90;;;819.80;;
60306;SDS011;46155;52.364;6.580;2024-03-29T14:24:44;892.23;;;826.67;;
60306;SDS011;46155;52.364;6.580;2024-03-29T14:27:09;886.67;;;821.70;;
60306;SDS011;46155;52.364;6.580;2024-03-29T14:29:35;881.17;;;816.63;;
60306;SDS011;46155;52.364;6.580;2024-03-29T14:32:00;877.33;;;813.57;;
60306;SDS011;46155;52.364;6.580;2024-03-29T14:34:26;875.13;;;811.33;;
60306;SDS011;46155;52.364;6.580;2024-03-29T14:36:53;883.23;;;819.07;;
60306;SDS011;46155;52.364;6.580;2024-03-29T14:39:18;873.57;;;810.03;;
60306;SDS011;46155;52.364;6.580;2024-03-29T14:41:46;872.57;;;809.27;;
60306;SDS011;46155;52.364;6.580;2024-03-29T14:44:12;889.00;;;824.37;;
60306;SDS011;46155;52.364;6.580;2024-03-29T14:46:38;882.83;;;818.30;;
60306;SDS011;46155;52.364;6.580;2024-03-29T14:49:03;877.83;;;813.73;;
60306;SDS011;46155;52.364;6.580;2024-03-29T14:51:32;871.13;;;807.90;;
60306;SDS011;46155;52.364;6.580;2024-03-29T14:53:57;877.93;;;814.23;;
60306;SDS011;46155;52.364;6.580;2024-03-29T14:56:23;880.13;;;815.97;;
60306;SDS011;46155;52.364;6.580;2024-03-29T14:58:48;877.40;;;813.93;;
60306;SDS011;46155;52.364;6.580;2024-03-29T15:01:13;879.07;;;814.90;;
60306;SDS011;46155;52.364;6.580;2024-03-29T15:03:39;866.70;;;803.53;;
60306;SDS011;46155;52.364;6.580;2024-03-29T15:06:05;876.10;;;812.37;;
60306;SDS011;46155;52.364;6.580;2024-03-29T15:08:30;878.80;;;814.60;;
60306;SDS011;46155;52.364;6.580;2024-03-29T15:11:01;874.60;;;810.87;;
60306;SDS011;46155;52.364;6.580;2024-03-29T15:13:27;878.93;;;814.87;;
60306;SDS011;46155;52.364;6.580;2024-03-29T15:15:57;889.00;;;823.80;;
60306;SDS011;46155;52.364;6.580;2024-03-29T15:18:24;880.10;;;815.90;;
60306;SDS011;46155;52.364;6.580;2024-03-29T15:20:56;898.80;;;832.80;;
60306;SDS011;46155;52.364;6.580;2024-03-29T15:23:25;885.67;;;820.83;;
60306;SDS011;46155;52.364;6.580;2024-03-29T15:25:55;886.80;;;821.60;;
60306;SDS011;46155;52.364;6.580;2024-03-29T15:28:22;873.27;;;809.40;;
60306;SDS011;46155;52.364;6.580;2024-03-29T15:31:17;869.67;;;806.53;;
60306;SDS011;46155;52.364;6.580;2024-03-29T15:33:48;865.50;;;802.73;;
60306;SDS011;46155;52.364;6.580;2024-03-29T15:36:14;889.53;;;824.60;;
60306;SDS011;46155;52.364;6.580;2024-03-29T15:38:39;891.83;;;826.67;;
60306;SDS011;46155;52.364;6.580;2024-03-29T15:41:05;886.47;;;821.40;;
60306;SDS011;46155;52.364;6.580;2024-03-29T15:43:33;898.17;;;832.30;;
60306;SDS011;46155;52.364;6.580;2024-03-29T15:46:01;894.40;;;828.97;;
60306;SDS011;46155;52.364;6.580;2024-03-29T15:48:27;892.93;;;827.47;;
60306;SDS011;46155;52.364;6.580;2024-03-29T15:50:53;901.63;;;835.43;;
60306;SDS011;46155;52.364;6.580;2024-03-29T15:53:19;898.37;;;832.27;;
60306;SDS011;46155;52.364;6.580;2024-03-29T15:55:45;897.90;;;831.93;;
60306;SDS011;46155;52.364;6.580;2024-03-29T15:58:13;904.13;;;837.70;;
60306;SDS011;46155;52.364;6.580;2024-03-29T16:00:40;913.63;;;846.47;;
60306;SDS011;46155;52.364;6.580;2024-03-29T16:03:11;914.13;;;846.63;;
60306;SDS011;46155;52.364;6.580;2024-03-29T16:05:40;913.20;;;845.47;;
60306;SDS011;46155;52.364;6.580;2024-03-29T16:08:13;923.50;;;854.70;;
60306;SDS011;46155;52.364;6.580;2024-03-29T16:13:21;906.83;;;839.87;;
60306;SDS011;46155;52.364;6.580;2024-03-29T16:15:48;913.40;;;846.23;;
60306;SDS011;46155;52.364;6.580;2024-03-29T16:18:14;917.87;;;849.80;;
60306;SDS011;46155;52.364;6.580;2024-03-29T16:20:41;916.77;;;848.73;;
60306;SDS011;46155;52.364;6.580;2024-03-29T16:23:06;914.30;;;846.63;;
60306;SDS011;46155;52.364;6.580;2024-03-29T16:25:32;924.20;;;855.57;;
60306;SDS011;46155;52.364;6.580;2024-03-29T16:27:57;923.60;;;855.03;;
60306;SDS011;46155;52.364;6.580;2024-03-29T16:30:23;920.37;;;852.17;;
60306;SDS011;46155;52.364;6.580;2024-03-29T16:32:49;916.50;;;848.53;;
60306;SDS011;46155;52.364;6.580;2024-03-29T16:35:14;920.47;;;852.17;;
60306;SDS011;46155;52.364;6.580;2024-03-29T16:37:39;907.73;;;840.87;;
60306;SDS011;46155;52.364;6.580;2024-03-29T16:40:05;903.03;;;836.50;;
60306;SDS011;46155;52.364;6.580;2024-03-29T16:42:31;895.93;;;829.83;;
60306;SDS011;46155;52.364;6.580;2024-03-29T16:44:56;891.53;;;826.30;;
60306;SDS011;46155;52.364;6.580;2024-03-29T16:47:21;881.40;;;816.70;;
60306;SDS011;46155;52.364;6.580;2024-03-29T16:49:47;897.13;;;831.37;;
60306;SDS011;46155;52.364;6.580;2024-03-29T16:52:12;880.10;;;815.57;;
60306;SDS011;46155;52.364;6.580;2024-03-29T16:54:37;887.30;;;822.77;;
60306;SDS011;46155;52.364;6.580;2024-03-29T16:57:03;889.27;;;824.20;;
60306;SDS011;46155;52.364;6.580;2024-03-29T16:59:28;887.93;;;823.27;;
60306;SDS011;46155;52.364;6.580;2024-03-29T17:01:54;886.00;;;821.03;;
60306;SDS011;46155;52.364;6.580;2024-03-29T17:04:20;880.37;;;815.23;;
60306;SDS011;46155;52.364;6.580;2024-03-29T17:06:46;883.10;;;818.80;;
60306;SDS011;46155;52.364;6.580;2024-03-29T17:09:12;864.50;;;801.43;;
60306;SDS011;46155;52.364;6.580;2024-03-29T17:12:04;847.27;;;786.30;;
60306;SDS011;46155;52.364;6.580;2024-03-29T17:14:29;847.17;;;785.83;;
60306;SDS011;46155;52.364;6.580;2024-03-29T17:16:55;843.60;;;782.80;;
60306;SDS011;46155;52.364;6.580;2024-03-29T17:19:24;859.27;;;797.53;;
60306;SDS011;46155;52.364;6.580;2024-03-29T17:21:50;855.53;;;793.97;;
60306;SDS011;46155;52.364;6.580;2024-03-29T17:24:15;846.93;;;786.33;;
60306;SDS011;46155;52.364;6.580;2024-03-29T17:26:41;840.97;;;780.67;;
60306;SDS011;46155;52.364;6.580;2024-03-29T17:29:06;829.60;;;770.33;;
60306;SDS011;46155;52.364;6.580;2024-03-29T17:31:31;811.37;;;753.77;;
60306;SDS011;46155;52.364;6.580;2024-03-29T17:33:59;823.60;;;764.93;;
60306;SDS011;46155;52.364;6.580;2024-03-29T17:36:24;826.53;;;767.77;;
60306;SDS011;46155;52.364;6.580;2024-03-29T17:38:49;795.33;;;738.90;;
60306;SDS011;46155;52.364;6.580;2024-03-29T17:41:15;805.57;;;747.73;;
60306;SDS011;46155;52.364;6.580;2024-03-29T17:43:40;785.80;;;730.40;;
60306;SDS011;46155;52.364;6.580;2024-03-29T17:46:06;791.60;;;735.63;;
60306;SDS011;46155;52.364;6.580;2024-03-29T17:48:31;785.53;;;730.23;;
60306;SDS011;46155;52.364;6.580;2024-03-29T17:50:59;778.33;;;723.80;;
60306;SDS011;46155;52.364;6.580;2024-03-29T17:53:25;779.47;;;724.93;;
60306;SDS011;46155;52.364;6.580;2024-03-29T17:55:50;769.40;;;716.10;;
60306;SDS011;46155;52.364;6.580;2024-03-29T17:58:15;750.00;;;698.10;;
60306;SDS011;46155;52.364;6.580;2024-03-29T18:00:41;750.50;;;698.57;;
60306;SDS011;46155;52.364;6.580;2024-03-29T18:03:06;750.63;;;699.37;;
60306;SDS011;46155;52.364;6.580;2024-03-29T18:05:31;731.87;;;682.00;;
60306;SDS011;46155;52.364;6.580;2024-03-29T18:07:56;727.50;;;678.60;;
60306;SDS011;46155;52.364;6.580;2024-03-29T18:10:22;734.17;;;684.53;;
60306;SDS011;46155;52.364;6.580;2024-03-29T18:12:47;727.93;;;678.60;;
60306;SDS011;46155;52.364;6.580;2024-03-29T18:15:13;718.47;;;670.30;;
60306;SDS011;46155;52.364;6.580;2024-03-29T18:17:39;712.33;;;664.80;;